createdAt,value
2023-10-09T00:00:38.644Z,57.03
2023-10-09T00:03:29.508Z,57.18
2023-10-09T00:05:59.216Z,57.04
2023-10-09T00:08:37.772Z,57.22
2023-10-09T00:11:20.352Z,57.18
2023-10-09T00:13:53.090Z,57.36
2023-10-09T00:16:33.010Z,57.43
2023-10-09T00:19:15.933Z,57.53
2023-10-09T00:21:42.960Z,57.50
2023-10-09T00:24:14.099Z,57.37
2023-10-09T00:26:46.178Z,57.53
2023-10-09T00:29:22.431Z,57.52
2023-10-09T00:32:08.149Z,57.53
2023-10-09T00:34:40.118Z,57.60
2023-10-09T00:37:16.680Z,57.61
2023-10-09T00:39:44.598Z,57.65
2023-10-09T00:42:19.330Z,57.69
2023-10-09T00:44:54.246Z,57.66
2023-10-09T00:47:32.190Z,57.77
2023-10-09T00:50:01.513Z,57.88
2023-10-09T00:52:35.766Z,57.76
2023-10-09T00:55:08.635Z,57.85
2023-10-09T00:57:40.965Z,57.81
2023-10-09T01:00:33.170Z,58.00
2023-10-09T01:03:20.589Z,58.00
2023-10-09T01:06:11.691Z,58.02
2023-10-09T01:08:45.162Z,58.00
2023-10-09T01:11:20.787Z,58.07
2023-10-09T01:13:50.802Z,58.03
2023-10-09T01:16:19.774Z,58.23
2023-10-09T01:18:52.446Z,58.15
2023-10-09T01:21:24.848Z,58.15
2023-10-09T01:24:09.013Z,58.29
2023-10-09T01:26:41.007Z,58.17
2023-10-09T01:29:15.488Z,58.14
2023-10-09T01:32:01.284Z,58.28
2023-10-09T01:34:53.043Z,58.44
2023-10-09T01:37:30.871Z,58.39
2023-10-09T01:40:36.331Z,58.48
2023-10-09T01:43:04.463Z,58.50
2023-10-09T01:45:42.764Z,58.49
2023-10-09T01:48:09.846Z,58.60
2023-10-09T01:50:40.424Z,58.54
2023-10-09T01:53:09.332Z,58.47
2023-10-09T01:55:41.195Z,58.49
2023-10-09T01:58:28.184Z,58.53
2023-10-09T02:00:57.948Z,58.62
2023-10-09T02:03:24.925Z,58.71
2023-10-09T02:05:55.068Z,58.74
2023-10-09T02:08:36.141Z,58.73
2023-10-09T02:11:03.567Z,58.74
2023-10-09T02:13:42.394Z,58.92
2023-10-09T02:16:15.426Z,58.82
2023-10-09T02:18:59.588Z,58.87
2023-10-09T02:21:40.464Z,59.00
2023-10-09T02:24:10.107Z,58.89
2023-10-09T02:26:59.924Z,58.88
2023-10-09T02:29:28.923Z,58.82
2023-10-09T02:32:01.560Z,58.91
2023-10-09T02:34:29.149Z,58.94
2023-10-09T02:37:01.635Z,58.96
2023-10-09T02:39:29.408Z,59.08
2023-10-09T02:42:18.414Z,59.08
2023-10-09T02:44:50.236Z,59.18
2023-10-09T02:47:30.104Z,59.09
2023-10-09T02:50:07.108Z,59.05
2023-10-09T02:52:42.818Z,59.19
2023-10-09T02:55:14.008Z,59.22
2023-10-09T02:57:42.328Z,59.21
2023-10-09T03:00:19.466Z,59.22
2023-10-09T03:02:50.288Z,59.32
2023-10-09T03:05:32.997Z,59.23
2023-10-09T03:07:59.979Z,59.37
2023-10-09T03:10:26.760Z,59.36
2023-10-09T03:12:56.485Z,59.30
2023-10-09T03:15:23.355Z,59.38
2023-10-09T03:17:50.378Z,59.33
2023-10-09T03:20:19.920Z,59.48
2023-10-09T03:22:51.368Z,59.50
2023-10-09T03:25:18.549Z,59.54
2023-10-09T03:27:46.678Z,59.50
2023-10-09T03:30:23.096Z,59.47
2023-10-09T03:32:54.373Z,59.55
2023-10-09T03:35:34.612Z,59.61
2023-10-09T03:38:12.194Z,59.63
2023-10-09T03:40:47.681Z,59.68
2023-10-09T03:43:17.474Z,59.62
2023-10-09T03:45:54.731Z,59.69
2023-10-09T03:48:23.404Z,59.71
2023-10-09T03:51:09.859Z,59.82
2023-10-09T03:53:37.269Z,59.76
2023-10-09T03:56:16.283Z,59.83
2023-10-09T03:58:57.315Z,59.81
2023-10-09T04:06:39.409Z,59.99
2023-10-09T04:11:53.013Z,59.91
2023-10-09T04:18:45.584Z,60.13
2023-10-09T04:21:28.557Z,60.09
2023-10-09T05:10:59.804Z,60.74
2023-10-09T05:14:34.986Z,60.92
2023-10-09T05:19:03.483Z,60.73
2023-10-09T05:24:53.623Z,60.80
2023-10-09T05:35:21.682Z,60.99
2023-10-09T05:42:54.054Z,61.18
2023-10-09T05:49:54.395Z,61.09
2023-10-09T06:01:23.362Z,61.24
2023-10-09T06:04:56.513Z,61.29
2023-10-09T06:17:14.654Z,61.37
2023-10-09T06:21:20.397Z,61.45
2023-10-09T06:55:44.948Z,61.77
2023-10-09T11:18:42.866Z,61.47
2023-10-09T11:21:11.766Z,61.45
2023-10-09T11:34:29.766Z,61.47
2023-10-09T14:22:25.678Z,60.57
2023-10-09T14:25:34.301Z,60.90
2023-10-09T14:31:51.782Z,60.97
2023-10-09T14:37:58.746Z,60.88
2023-10-09T14:44:42.694Z,61.02
2023-10-09T14:54:15.755Z,61.08
2023-10-09T15:01:18.941Z,61.02
2023-10-09T15:17:52.798Z,61.21
2023-10-09T15:20:35.743Z,61.19
2023-10-09T15:29:44.581Z,61.23
2023-10-09T15:32:41.150Z,61.33
2023-10-09T15:36:08.804Z,61.41
2023-10-09T15:39:26.758Z,61.39
2023-10-09T15:42:36.650Z,61.53
2023-10-09T15:46:00.596Z,61.58
2023-10-09T15:49:33.785Z,61.55
2023-10-09T15:52:42.577Z,61.38
2023-10-09T15:56:03.732Z,61.54
2023-10-09T15:58:58.432Z,61.54
2023-10-09T16:01:51.201Z,61.54
2023-10-09T16:05:15.629Z,61.61
2023-10-09T16:08:15.224Z,61.62
2023-10-09T16:10:48.111Z,61.74
2023-10-09T16:13:18.482Z,61.70
2023-10-09T16:15:45.421Z,61.79
2023-10-09T16:18:49.422Z,61.81
2023-10-09T16:21:16.549Z,61.81
2023-10-09T16:23:43.762Z,61.80
2023-10-09T16:26:15.689Z,61.78
2023-10-09T16:28:43.574Z,61.83
2023-10-09T16:31:37.145Z,61.79
2023-10-09T16:34:07.718Z,61.98
2023-10-09T16:36:35.871Z,61.98
2023-10-09T16:39:30.003Z,61.99
2023-10-09T16:41:58.029Z,62.04
2023-10-09T16:44:25.089Z,62.23
2023-10-09T16:46:54.909Z,62.07
2023-10-09T16:49:25.631Z,62.14
2023-10-09T16:51:55.636Z,62.17
2023-10-09T16:54:23.006Z,62.14
2023-10-09T16:57:30.915Z,62.19
2023-10-09T16:59:58.478Z,62.19
2023-10-09T17:02:28.119Z,62.26
2023-10-09T17:04:57.706Z,62.30
2023-10-09T17:07:28.362Z,62.29
2023-10-09T17:09:58.456Z,62.35
2023-10-09T17:12:31.054Z,62.36
2023-10-09T17:14:58.918Z,62.40
2023-10-09T17:17:26.035Z,62.46
2023-10-09T17:19:56.648Z,62.41
2023-10-09T17:22:26.146Z,62.53
2023-10-09T17:24:56.272Z,62.55
2023-10-09T17:27:23.407Z,62.50
2023-10-09T17:29:50.484Z,62.62
2023-10-09T17:32:20.950Z,62.73
2023-10-09T17:34:47.832Z,62.66
2023-10-09T17:40:30.198Z,62.64
2023-10-09T17:43:16.057Z,62.75
2023-10-09T17:45:47.958Z,62.69
2023-10-09T17:48:17.813Z,62.65
2023-10-09T17:50:45.524Z,62.77
2023-10-09T17:53:14.915Z,62.83
2023-10-09T17:55:44.822Z,62.84
2023-10-09T17:58:15.071Z,62.79
2023-10-09T18:00:45.938Z,62.84
2023-10-09T18:03:19.734Z,62.95
2023-10-09T18:06:13.334Z,63.01
2023-10-09T18:08:40.272Z,63.02
2023-10-09T18:11:07.297Z,62.97
2023-10-09T18:13:36.821Z,63.05
2023-10-09T18:16:14.616Z,63.15
2023-10-09T18:18:41.675Z,63.16
2023-10-09T18:21:09.368Z,63.23
2023-10-09T18:23:37.464Z,63.10
2023-10-09T18:26:06.549Z,63.06
2023-10-09T18:28:37.007Z,63.11
2023-10-09T18:31:10.616Z,63.24
2023-10-09T18:36:57.431Z,63.30
2023-10-09T18:39:48.918Z,63.18
2023-10-09T18:42:16.103Z,63.25
2023-10-09T18:44:44.388Z,63.35
2023-10-09T18:47:33.952Z,63.35
2023-10-09T18:50:03.968Z,63.42
2023-10-09T18:52:33.877Z,63.39
2023-10-09T18:55:02.229Z,63.40
2023-10-09T18:57:28.924Z,63.55
2023-10-09T19:00:01.836Z,63.55
2023-10-09T19:02:28.898Z,63.51
2023-10-09T19:08:08.686Z,63.65
2023-10-09T19:10:37.766Z,63.65
2023-10-09T19:13:10.645Z,63.59
2023-10-09T19:15:53.212Z,63.57
2023-10-09T19:18:22.604Z,63.50
2023-10-09T19:21:37.153Z,63.57
2023-10-09T19:24:51.949Z,63.57
2023-10-09T19:27:44.042Z,63.73
2023-10-09T19:30:16.981Z,63.67
2023-10-09T19:32:49.045Z,63.66
2023-10-09T19:35:16.676Z,63.72
2023-10-09T19:37:47.005Z,63.84
2023-10-09T19:40:16.933Z,63.82
2023-10-09T19:42:43.937Z,63.87
2023-10-09T19:48:51.030Z,63.96
2023-10-09T19:51:18.536Z,63.93
2023-10-09T19:53:46.396Z,63.87
2023-10-09T19:56:13.688Z,63.84
2023-10-09T19:58:43.869Z,63.85
2023-10-09T20:01:14.344Z,63.86
2023-10-09T20:03:45.095Z,64.07
2023-10-09T20:06:15.779Z,64.07
2023-10-09T20:08:45.939Z,64.27
2023-10-09T20:11:15.565Z,64.15
2023-10-09T20:14:24.148Z,64.39
2023-10-09T20:17:19.013Z,64.45
2023-10-09T20:19:52.515Z,64.37
2023-10-09T20:22:20.417Z,64.49
2023-10-09T20:24:48.633Z,64.42
2023-10-09T20:27:40.899Z,64.50
2023-10-09T20:30:17.568Z,64.52
2023-10-09T20:32:48.045Z,64.54
2023-10-09T20:35:16.067Z,64.54
2023-10-09T20:37:48.804Z,64.33
2023-10-09T20:40:21.915Z,64.53
2023-10-09T20:42:50.165Z,64.69
2023-10-09T20:45:40.524Z,64.68
2023-10-09T20:48:09.236Z,64.74
2023-10-09T20:51:18.489Z,64.59
2023-10-09T20:54:16.024Z,64.75
2023-10-09T20:58:05.573Z,64.86
2023-10-09T21:00:38.458Z,64.81
2023-10-09T21:03:08.790Z,64.87
2023-10-09T21:05:37.459Z,64.89
2023-10-09T21:08:12.807Z,64.81
2023-10-09T21:10:52.641Z,64.83
2023-10-09T21:13:24.781Z,64.98
2023-10-09T21:16:07.858Z,64.96
2023-10-09T21:18:40.003Z,65.09
2023-10-09T21:21:16.600Z,65.15
2023-10-09T21:23:45.834Z,65.06
2023-10-09T21:26:22.764Z,65.08
2023-10-09T21:28:52.523Z,65.00
2023-10-09T21:31:23.837Z,65.05
2023-10-09T21:33:52.419Z,65.06
2023-10-09T21:36:21.336Z,65.15
2023-10-09T21:38:51.959Z,65.07
2023-10-09T21:41:23.114Z,65.02
2023-10-09T21:43:57.541Z,65.13
2023-10-09T21:46:27.119Z,65.13
2023-10-09T21:48:59.699Z,65.13
2023-10-09T21:51:28.251Z,65.19
2023-10-09T21:53:59.046Z,65.05
2023-10-09T21:56:31.855Z,65.06
2023-10-09T21:59:00.570Z,65.02
2023-10-09T22:01:29.192Z,64.92
2023-10-09T22:03:58.905Z,65.13
2023-10-09T22:07:31.431Z,65.13
2023-10-09T22:10:15.004Z,65.24
2023-10-09T22:12:50.571Z,65.18
2023-10-09T22:15:19.639Z,65.21
2023-10-09T22:17:48.266Z,65.27
2023-10-09T22:20:24.634Z,65.36
2023-10-09T22:22:57.966Z,65.22
2023-10-09T22:25:37.085Z,65.35
2023-10-09T22:28:12.491Z,65.48
2023-10-09T22:30:44.895Z,65.26
2023-10-09T22:33:22.577Z,65.09
2023-10-09T22:35:56.519Z,65.41
2023-10-09T22:38:30.717Z,65.48
2023-10-09T22:41:02.221Z,65.29
2023-10-09T22:43:33.377Z,65.53
2023-10-09T22:46:13.230Z,65.62
2023-10-09T22:48:49.524Z,65.67
2023-10-09T22:51:25.495Z,65.66
2023-10-09T22:53:54.467Z,65.50
2023-10-09T22:56:22.646Z,65.69
2023-10-09T22:58:57.122Z,65.60
2023-10-09T23:01:32.452Z,65.49
2023-10-09T23:04:11.327Z,65.66
2023-10-09T23:06:45.997Z,65.78
2023-10-09T23:09:32.396Z,65.69
2023-10-09T23:12:10.005Z,65.63
2023-10-09T23:14:40.950Z,65.90
2023-10-09T23:17:09.228Z,65.98
2023-10-09T23:19:42.847Z,65.88
2023-10-09T23:22:16.187Z,65.93
2023-10-09T23:25:09.374Z,65.86
2023-10-09T23:27:39.382Z,65.97
2023-10-09T23:30:24.801Z,66.08
2023-10-09T23:33:12.969Z,65.97
2023-10-09T23:36:15.545Z,66.11
2023-10-09T23:39:02.706Z,65.88
2023-10-09T23:41:34.566Z,65.87
2023-10-09T23:44:10.886Z,65.81
2023-10-09T23:46:41.203Z,66.25
2023-10-09T23:49:10.445Z,65.99
2023-10-09T23:51:41.832Z,65.91
2023-10-09T23:54:13.406Z,66.02
2023-10-09T23:56:48.778Z,65.99
2023-10-09T23:59:18.200Z,66.10
